Time;durP1;ratioP1;P1;durP2;ratioP2;P2;SDS_P1;SDS_P2;PMS_P1;PMS_P2;Temp;Humidity;BMP_temperature;BMP_pressure;BME280_temperature;BME280_humidity;BME280_pressure;Samples;Min_cycle;Max_cycle;Signal;HPM_P1;HPM_P2
2022/10/21 00:01:29;;;;;;;0.20;0.20;;;;;;;;;;5004114;28;20044;-86
2022/10/21 00:03:55;;;;;;;0.20;0.10;;;;;;;;;;5019394;28;20045;-85
2022/10/21 00:06:21;;;;;;;0.20;0.10;;;;;;;;;;5038145;28;20097;-84
2022/10/21 00:08:47;;;;;;;0.38;0.10;;;;;;;;;;5008682;28;20040;-85
2022/10/21 00:11:13;;;;;;;0.20;0.10;;;;;;;;;;5042067;28;20049;-86
2022/10/21 00:13:39;;;;;;;0.20;0.10;;;;;;;;;;4998670;28;20040;-85
2022/10/21 00:16:07;;;;;;;0.20;0.10;;;;;;;;;;5014709;28;20033;-85
2022/10/21 00:18:34;;;;;;;0.20;0.10;;;;;;;;;;5039467;28;20098;-85
2022/10/21 00:21:00;;;;;;;0.20;0.10;;;;;;;;;;5024314;28;20718;-85
2022/10/21 00:23:26;;;;;;;0.20;0.10;;;;;;;;;;5017275;28;20064;-85
2022/10/21 00:25:56;;;;;;;0.20;0.10;;;;;;;;;;5006626;28;20399;-84
2022/10/21 00:28:22;;;;;;;0.20;0.10;;;;;;;;;;5024660;28;20033;-84
2022/10/21 00:30:48;;;;;;;0.20;0.10;;;;;;;;;;5006296;28;20124;-85
2022/10/21 00:33:14;;;;;;;0.20;0.10;;;;;;;;;;5010715;28;20086;-84
2022/10/21 00:35:40;;;;;;;0.20;0.10;;;;;;;;;;5004167;28;20096;-83
2022/10/21 00:38:06;;;;;;;0.20;0.10;;;;;;;;;;5040548;28;20468;-85
2022/10/21 00:40:33;;;;;;;0.20;0.10;;;;;;;;;;5024654;28;20041;-85
2022/10/21 00:42:59;;;;;;;0.20;0.10;;;;;;;;;;5024507;28;20097;-89
2022/10/21 00:45:26;;;;;;;0.20;0.10;;;;;;;;;;5026186;28;20040;-84
2022/10/21 00:47:59;;;;;;;0.20;0.05;;;;;;;;;;5038045;28;20075;-86
2022/10/21 00:50:25;;;;;;;;;;;;;;;;;;5036120;28;20119;-85
2022/10/21 00:52:52;;;;;;;0.20;0.10;;;;;;;;;;5023341;28;20012;-85
2022/10/21 00:55:18;;;;;;;0.20;0.10;;;;;;;;;;5016947;28;20442;-84
2022/10/21 00:57:44;;;;;;;0.20;0.20;;;;;;;;;;5022529;28;20637;-85
2022/10/21 01:00:10;;;;;;;0.20;0.10;;;;;;;;;;5039203;28;20033;-84
2022/10/21 01:02:36;;;;;;;0.30;0.20;;;;;;;;;;5008779;28;20045;-84
2022/10/21 01:05:03;;;;;;;0.20;0.10;;;;;;;;;;5006681;28;20037;-86
2022/10/21 01:07:30;;;;;;;0.20;0.10;;;;;;;;;;5012315;28;20122;-85
2022/10/21 01:09:56;;;;;;;0.20;0.10;;;;;;;;;;5023207;28;20190;-85
2022/10/21 01:12:33;;;;;;;0.20;0.10;;;;;;;;;;5013946;28;20056;-84
2022/10/21 01:15:02;;;;;;;0.20;0.10;;;;;;;;;;5023998;28;20110;-85
2022/10/21 01:17:43;;;;;;;0.20;0.10;;;;;;;;;;5022506;28;20042;-84
2022/10/21 01:20:28;;;;;;;0.20;0.10;;;;;;;;;;5022388;28;20415;-85
2022/10/21 01:23:06;;;;;;;0.20;0.10;;;;;;;;;;5022154;28;20103;-85
2022/10/21 01:25:36;;;;;;;0.20;0.10;;;;;;;;;;5022923;28;20040;-85
2022/10/21 01:28:28;;;;;;;0.20;0.10;;;;;;;;;;5022114;28;20052;-84
2022/10/21 01:31:00;;;;;;;0.20;0.10;;;;;;;;;;5019869;28;20044;-85
2022/10/21 01:33:56;;;;;;;0.20;0.10;;;;;;;;;;5023538;28;20236;-85
2022/10/21 01:36:25;;;;;;;0.20;0.10;;;;;;;;;;5018533;28;20547;-84
2022/10/21 01:39:00;;;;;;;0.20;0.10;;;;;;;;;;5030927;28;20040;-85
2022/10/21 01:41:29;;;;;;;0.20;0.10;;;;;;;;;;5020795;28;20056;-85
2022/10/21 01:43:58;;;;;;;0.20;0.10;;;;;;;;;;5037842;28;20091;-85
2022/10/21 01:46:43;;;;;;;0.20;0.10;;;;;;;;;;5034739;28;20653;-85
2022/10/21 01:49:18;;;;;;;0.20;0.10;;;;;;;;;;5022437;28;20546;-85
2022/10/21 01:51:44;;;;;;;0.20;0.10;;;;;;;;;;5007429;28;20562;-85
2022/10/21 01:54:13;;;;;;;0.20;0.10;;;;;;;;;;5016662;28;20565;-85
2022/10/21 01:56:40;;;;;;;0.20;0.10;;;;;;;;;;5033337;22;20123;-81
2022/10/21 01:59:07;;;;;;;0.20;0.10;;;;;;;;;;5013298;28;20041;-81
2022/10/21 02:01:34;;;;;;;0.20;0.10;;;;;;;;;;5021171;28;20041;-81
2022/10/21 02:04:01;;;;;;;0.20;0.10;;;;;;;;;;5033826;28;20037;-82
2022/10/21 02:06:27;;;;;;;0.20;0.10;;;;;;;;;;5009563;28;20037;-83
2022/10/21 02:08:53;;;;;;;0.20;0.10;;;;;;;;;;5001659;28;20091;-82
2022/10/21 02:11:19;;;;;;;0.20;0.13;;;;;;;;;;5014858;28;20038;-82
2022/10/21 02:13:50;;;;;;;0.20;0.10;;;;;;;;;;5002670;28;20048;-82
2022/10/21 02:16:18;;;;;;;0.20;0.10;;;;;;;;;;5003519;28;20065;-81
2022/10/21 02:18:44;;;;;;;0.20;0.20;;;;;;;;;;5000717;28;21637;-83
2022/10/21 02:21:13;;;;;;;0.20;0.10;;;;;;;;;;5004791;28;20045;-81
2022/10/21 02:23:43;;;;;;;0.32;0.32;;;;;;;;;;5007409;28;20045;-82
2022/10/21 02:26:09;;;;;;;0.20;0.08;;;;;;;;;;5020115;28;20064;-83
2022/10/21 02:28:36;;;;;;;0.20;0.10;;;;;;;;;;5021828;28;20456;-85
2022/10/21 02:31:21;;;;;;;0.20;0.17;;;;;;;;;;4992659;28;20562;-85
2022/10/21 02:33:51;;;;;;;0.20;0.10;;;;;;;;;;5022227;28;20507;-83
2022/10/21 02:36:23;;;;;;;0.20;0.10;;;;;;;;;;5020911;28;20033;-82
2022/10/21 02:38:53;;;;;;;0.20;0.10;;;;;;;;;;5000591;28;20049;-84
2022/10/21 02:41:21;;;;;;;0.20;0.10;;;;;;;;;;5004012;28;20045;-86
2022/10/21 02:43:56;;;;;;;0.20;0.10;;;;;;;;;;5006242;28;20250;-86
2022/10/21 02:46:22;;;;;;;0.20;0.10;;;;;;;;;;5005333;28;20069;-85
2022/10/21 02:48:48;;;;;;;0.20;0.10;;;;;;;;;;4998314;28;20041;-85
2022/10/21 02:51:15;;;;;;;0.20;0.10;;;;;;;;;;4990691;28;20060;-84
2022/10/21 02:53:44;;;;;;;0.20;0.10;;;;;;;;;;5020476;28;20389;-84
2022/10/21 02:56:10;;;;;;;0.20;0.10;;;;;;;;;;5005970;28;20128;-86
2022/10/21 02:58:36;;;;;;;0.20;0.10;;;;;;;;;;5005818;28;20037;-84
2022/10/21 03:01:02;;;;;;;0.20;0.10;;;;;;;;;;5005662;28;20037;-83
2022/10/21 03:03:29;;;;;;;0.20;0.10;;;;;;;;;;5020824;28;20099;-83
2022/10/21 03:05:55;;;;;;;0.55;0.43;;;;;;;;;;5003368;28;20577;-83
2022/10/21 03:08:21;;;;;;;0.20;0.10;;;;;;;;;;4995288;28;20053;-83
2022/10/21 03:10:50;;;;;;;0.20;0.10;;;;;;;;;;4990479;28;20037;-83
2022/10/21 03:13:17;;;;;;;0.30;0.15;;;;;;;;;;5040261;28;21117;-84
2022/10/21 03:15:43;;;;;;;0.20;0.10;;;;;;;;;;5020866;28;20037;-84
2022/10/21 03:18:09;;;;;;;0.20;0.10;;;;;;;;;;5005288;28;20041;-84
2022/10/21 03:20:35;;;;;;;0.20;0.10;;;;;;;;;;4989225;28;20060;-84
2022/10/21 03:23:01;;;;;;;0.20;0.10;;;;;;;;;;5020989;28;20261;-84
2022/10/21 03:25:27;;;;;;;0.20;0.10;;;;;;;;;;4985259;28;20079;-84
2022/10/21 03:27:53;;;;;;;0.20;0.10;;;;;;;;;;4984961;28;20042;-83
2022/10/21 03:30:19;;;;;;;0.20;0.10;;;;;;;;;;5019787;28;20084;-83
2022/10/21 03:32:45;;;;;;;0.20;0.10;;;;;;;;;;5020360;28;20057;-84
2022/10/21 03:35:11;;;;;;;0.20;0.10;;;;;;;;;;5021517;28;20443;-83
2022/10/21 03:37:37;;;;;;;0.20;0.10;;;;;;;;;;5003077;28;20111;-83
2022/10/21 03:40:07;;;;;;;0.20;0.10;;;;;;;;;;4986550;28;20535;-83
2022/10/21 03:42:36;;;;;;;0.20;0.10;;;;;;;;;;5004203;28;20033;-83
2022/10/21 03:45:02;;;;;;;0.20;0.10;;;;;;;;;;5014258;28;20041;-83
2022/10/21 03:47:52;;;;;;;0.20;0.20;;;;;;;;;;5018011;28;20044;-82
2022/10/21 03:50:21;;;;;;;0.75;0.30;;;;;;;;;;5018764;28;20411;-84
2022/10/21 03:52:47;;;;;;;0.20;0.10;;;;;;;;;;5003919;28;20035;-83
2022/10/21 03:55:19;;;;;;;0.20;0.10;;;;;;;;;;5004073;28;20807;-84
2022/10/21 03:57:57;;;;;;;0.20;0.10;;;;;;;;;;5020901;28;20049;-84
2022/10/21 04:00:26;;;;;;;0.20;0.10;;;;;;;;;;5003387;28;20500;-83
2022/10/21 04:06:42;;;;;;;0.20;0.10;;;;;;;;;;5010952;28;20469;-83
2022/10/21 04:12:33;;;;;;;;;;;;;;;;;;4944879;28;20054;-84
2022/10/21 04:18:24;;;;;;;0.20;0.10;;;;;;;;;;4948056;28;20054;-84
2022/10/21 04:21:13;;;;;;;0.20;0.10;;;;;;;;;;4998920;28;20130;-83
2022/10/21 04:24:04;;;;;;;0.20;0.10;;;;;;;;;;5017252;28;20423;-83
2022/10/21 04:29:55;;;;;;;0.20;0.10;;;;;;;;;;5019248;28;20049;-83
2022/10/21 04:32:36;;;;;;;0.20;0.10;;;;;;;;;;5006068;28;20037;-83
2022/10/21 04:35:08;;;;;;;0.20;0.10;;;;;;;;;;5001860;28;20339;-83
2022/10/21 04:37:38;;;;;;;0.20;0.10;;;;;;;;;;4999463;28;20052;-84
2022/10/21 04:40:08;;;;;;;0.20;0.10;;;;;;;;;;5003445;28;20042;-84
2022/10/21 04:42:49;;;;;;;0.20;0.10;;;;;;;;;;5005290;28;20555;-83
2022/10/21 04:45:26;;;;;;;0.20;0.10;;;;;;;;;;4997200;28;20073;-83
2022/10/21 04:47:52;;;;;;;0.20;0.10;;;;;;;;;;5006123;28;20064;-83
2022/10/21 04:50:23;;;;;;;0.20;0.10;;;;;;;;;;5005098;28;20376;-83
2022/10/21 04:53:01;;;;;;;0.20;0.10;;;;;;;;;;5004789;28;20037;-84
2022/10/21 04:55:37;;;;;;;0.20;0.10;;;;;;;;;;5005040;28;20049;-83
2022/10/21 04:58:06;;;;;;;0.20;0.10;;;;;;;;;;5002080;28;20044;-84
2022/10/21 05:00:35;;;;;;;0.20;0.10;;;;;;;;;;5018140;28;20047;-83
2022/10/21 05:03:01;;;;;;;0.20;0.10;;;;;;;;;;4987987;28;20242;-84
2022/10/21 05:05:27;;;;;;;0.20;0.10;;;;;;;;;;4987659;28;21004;-83
2022/10/21 05:07:56;;;;;;;0.20;0.10;;;;;;;;;;5019648;28;20048;-83
2022/10/21 05:10:25;;;;;;;0.20;0.10;;;;;;;;;;5004456;28;20045;-83
2022/10/21 05:12:51;;;;;;;0.20;0.10;;;;;;;;;;5004352;28;20061;-83
2022/10/21 05:15:45;;;;;;;0.20;0.10;;;;;;;;;;5003885;28;20045;-83
2022/10/21 05:18:29;;;;;;;0.25;0.15;;;;;;;;;;5015799;28;20458;-84
2022/10/21 05:21:16;;;;;;;0.20;0.10;;;;;;;;;;5004099;28;20048;-84
2022/10/21 05:23:45;;;;;;;0.20;0.10;;;;;;;;;;5020771;28;20049;-83
2022/10/21 05:26:33;;;;;;;0.20;0.10;;;;;;;;;;5001569;28;20049;-84
2022/10/21 05:29:03;;;;;;;0.50;0.40;;;;;;;;;;5000130;28;20060;-84
2022/10/21 05:31:51;;;;;;;0.20;0.10;;;;;;;;;;5004044;28;20052;-84
2022/10/21 05:34:17;;;;;;;0.20;0.10;;;;;;;;;;5003849;28;20041;-83
2022/10/21 05:36:43;;;;;;;0.20;0.10;;;;;;;;;;5003775;28;21429;-83
2022/10/21 05:39:31;;;;;;;0.20;0.10;;;;;;;;;;5003851;28;20053;-83
2022/10/21 05:42:00;;;;;;;0.20;0.10;;;;;;;;;;5003280;28;20392;-83
2022/10/21 05:44:40;;;;;;;0.20;0.10;;;;;;;;;;5001380;28;20049;-84
2022/10/21 05:47:09;;;;;;;0.20;0.17;;;;;;;;;;5000460;28;20049;-83
2022/10/21 05:49:36;;;;;;;0.20;0.10;;;;;;;;;;5004084;28;20110;-84
2022/10/21 05:52:23;;;;;;;0.20;0.10;;;;;;;;;;5018095;28;20127;-84
2022/10/21 05:54:52;;;;;;;0.20;0.10;;;;;;;;;;5003594;28;20553;-83
2022/10/21 05:57:18;;;;;;;0.20;0.10;;;;;;;;;;4984721;28;20068;-83
2022/10/21 05:59:44;;;;;;;0.30;0.10;;;;;;;;;;5001412;28;20060;-83
2022/10/21 06:02:10;;;;;;;0.20;0.10;;;;;;;;;;5003286;28;20038;-83
2022/10/21 06:04:39;;;;;;;0.20;0.10;;;;;;;;;;5003693;28;20049;-83
2022/10/21 06:07:21;;;;;;;;;;;;;;;;;;;;;
2022/10/21 06:09:56;;;;;;;0.20;0.10;;;;;;;;;;5019984;28;20061;-83
2022/10/21 06:12:25;;;;;;;0.20;0.10;;;;;;;;;;5018484;28;20136;-83
2022/10/21 06:14:57;;;;;;;0.20;0.10;;;;;;;;;;5010350;28;20129;-82
2022/10/21 06:17:29;;;;;;;0.20;0.10;;;;;;;;;;4996434;28;20052;-82
2022/10/21 06:19:55;;;;;;;0.20;0.10;;;;;;;;;;5012672;28;20048;-83
2022/10/21 06:22:24;;;;;;;0.20;0.10;;;;;;;;;;4998343;28;20049;-83
2022/10/21 06:24:50;;;;;;;0.20;0.10;;;;;;;;;;5011807;28;20076;-84
2022/10/21 06:27:19;;;;;;;0.20;0.10;;;;;;;;;;5008999;28;20053;-84
2022/10/21 06:29:50;;;;;;;0.20;0.10;;;;;;;;;;5008333;28;20042;-83
2022/10/21 06:32:19;;;;;;;0.20;0.10;;;;;;;;;;5007908;28;20052;-84
2022/10/21 06:34:45;;;;;;;0.30;0.30;;;;;;;;;;4998435;28;20072;-83
2022/10/21 06:37:25;;;;;;;0.20;0.10;;;;;;;;;;5001887;28;20041;-85
2022/10/21 06:39:51;;;;;;;0.20;0.10;;;;;;;;;;4999194;28;20037;-84
2022/10/21 06:42:20;;;;;;;0.20;0.08;;;;;;;;;;5018514;28;20506;-84
2022/10/21 06:44:46;;;;;;;0.20;0.10;;;;;;;;;;5001466;28;20037;-84
2022/10/21 06:47:16;;;;;;;0.20;0.10;;;;;;;;;;5014243;28;21461;-84
2022/10/21 06:49:51;;;;;;;0.20;0.10;;;;;;;;;;5016992;28;20045;-85
2022/10/21 06:52:24;;;;;;;0.20;0.10;;;;;;;;;;5016778;28;20048;-83
2022/10/21 06:54:50;;;;;;;0.20;0.10;;;;;;;;;;4998119;28;20199;-84
2022/10/21 06:57:39;;;;;;;0.20;0.10;;;;;;;;;;5016974;28;20034;-83
2022/10/21 07:00:08;;;;;;;0.20;0.10;;;;;;;;;;5004921;28;20053;-84
2022/10/21 07:03:00;;;;;;;0.20;0.20;;;;;;;;;;5018529;28;20184;-84
2022/10/21 07:05:32;;;;;;;0.20;0.10;;;;;;;;;;5008768;28;20516;-85
2022/10/21 07:08:07;;;;;;;0.20;0.10;;;;;;;;;;5017616;28;20136;-85
2022/10/21 07:10:45;;;;;;;0.20;0.10;;;;;;;;;;5006016;28;20124;-83
2022/10/21 07:13:20;;;;;;;0.20;0.10;;;;;;;;;;4991135;28;20044;-84
2022/10/21 07:16:02;;;;;;;0.20;0.10;;;;;;;;;;5006295;28;20038;-84
2022/10/21 07:18:53;;;;;;;0.20;0.10;;;;;;;;;;4999223;28;20175;-84
2022/10/21 07:21:23;;;;;;;0.30;0.15;;;;;;;;;;5005674;28;20081;-84
2022/10/21 07:24:04;;;;;;;0.20;0.10;;;;;;;;;;5007061;28;20454;-85
2022/10/21 07:26:33;;;;;;;0.20;0.10;;;;;;;;;;5006307;28;20049;-84
2022/10/21 07:29:26;;;;;;;0.20;0.10;;;;;;;;;;5008080;28;20045;-84
2022/10/21 07:31:52;;;;;;;0.20;0.10;;;;;;;;;;5020720;28;20041;-84
2022/10/21 07:34:26;;;;;;;0.20;0.10;;;;;;;;;;4988515;28;20037;-85
2022/10/21 07:36:55;;;;;;;0.20;0.10;;;;;;;;;;5044727;22;20100;-84
2022/10/21 07:39:23;;;;;;;0.20;0.10;;;;;;;;;;5053399;28;20908;-85
2022/10/21 07:41:51;;;;;;;0.20;0.10;;;;;;;;;;5071656;28;20191;-83
2022/10/21 07:44:18;;;;;;;0.20;0.10;;;;;;;;;;5072929;28;20035;-84
2022/10/21 07:46:50;;;;;;;0.20;0.10;;;;;;;;;;5054114;28;20133;-84
2022/10/21 07:49:17;;;;;;;0.20;0.10;;;;;;;;;;5063204;22;20129;-90
2022/10/21 07:51:44;;;;;;;0.25;0.15;;;;;;;;;;5024097;28;20049;-93
2022/10/21 07:54:12;;;;;;;0.20;0.10;;;;;;;;;;5028123;28;20029;-87
2022/10/21 07:56:39;;;;;;;0.20;0.10;;;;;;;;;;5042229;28;20135;-88
2022/10/21 07:59:05;;;;;;;0.20;0.10;;;;;;;;;;5038291;28;20072;-90
2022/10/21 08:01:32;;;;;;;0.20;0.10;;;;;;;;;;5014184;28;20483;-88
2022/10/21 08:03:58;;;;;;;0.20;0.10;;;;;;;;;;5010618;28;20420;-86
2022/10/21 08:06:25;;;;;;;0.20;0.10;;;;;;;;;;5044781;28;20408;-87
2022/10/21 08:08:52;;;;;;;0.20;0.10;;;;;;;;;;5035238;28;20495;-89
2022/10/21 08:11:22;;;;;;;0.20;0.10;;;;;;;;;;5040249;28;20041;-89
2022/10/21 08:13:48;;;;;;;0.35;0.30;;;;;;;;;;5039168;28;20122;-88
2022/10/21 08:16:14;;;;;;;0.20;0.10;;;;;;;;;;5012430;28;20048;-88
2022/10/21 08:18:40;;;;;;;0.20;0.10;;;;;;;;;;5002466;28;20594;-88
2022/10/21 08:21:06;;;;;;;0.20;0.10;;;;;;;;;;5030590;28;20909;-90
2022/10/21 08:23:32;;;;;;;0.20;0.10;;;;;;;;;;5023203;28;20037;-87
2022/10/21 08:26:00;;;;;;;0.20;0.10;;;;;;;;;;5036452;28;20422;-86
2022/10/21 08:28:29;;;;;;;0.20;0.10;;;;;;;;;;5026086;28;20103;-87
2022/10/21 08:31:22;;;;;;;0.20;0.20;;;;;;;;;;5022096;28;20056;-87
2022/10/21 08:33:48;;;;;;;0.20;0.10;;;;;;;;;;5022472;28;20040;-88
2022/10/21 08:36:16;;;;;;;0.20;0.10;;;;;;;;;;5022886;28;20047;-86
2022/10/21 08:38:42;;;;;;;0.20;0.10;;;;;;;;;;5029522;28;20051;-86
2022/10/21 08:41:21;;;;;;;0.20;0.10;;;;;;;;;;5019851;28;20056;-88
2022/10/21 08:43:47;;;;;;;0.20;0.10;;;;;;;;;;5039479;28;20048;-87
2022/10/21 08:46:15;;;;;;;0.20;0.05;;;;;;;;;;5027476;28;20178;-86
2022/10/21 08:48:43;;;;;;;0.20;0.10;;;;;;;;;;5025682;28;20032;-90
2022/10/21 08:51:15;;;;;;;0.20;0.10;;;;;;;;;;5022224;28;20048;-87
2022/10/21 08:53:46;;;;;;;0.20;0.20;;;;;;;;;;5038996;28;20309;-87
2022/10/21 08:56:13;;;;;;;0.20;0.10;;;;;;;;;;5016321;28;20545;-89
2022/10/21 08:58:39;;;;;;;0.30;0.20;;;;;;;;;;5020729;28;20487;-87
2022/10/21 09:01:15;;;;;;;0.20;0.10;;;;;;;;;;5021127;28;20388;-86
2022/10/21 09:03:45;;;;;;;0.20;0.10;;;;;;;;;;5022506;28;20048;-83
2022/10/21 09:06:18;;;;;;;0.20;0.10;;;;;;;;;;5022438;28;20086;-83
2022/10/21 09:09:04;;;;;;;0.20;0.10;;;;;;;;;;5039359;28;20036;-81
2022/10/21 09:11:46;;;;;;;0.20;0.10;;;;;;;;;;5039508;28;20041;-84
2022/10/21 09:14:15;;;;;;;0.20;0.10;;;;;;;;;;5040644;28;20570;-85
2022/10/21 09:16:56;;;;;;;0.20;0.10;;;;;;;;;;5039568;28;20467;-85
2022/10/21 09:19:43;;;;;;;0.20;0.10;;;;;;;;;;5012317;28;20128;-84
2022/10/21 09:22:24;;;;;;;0.20;0.10;;;;;;;;;;5021510;28;20037;-83
2022/10/21 09:25:29;;;;;;;0.20;0.10;;;;;;;;;;5016611;28;20049;-83
2022/10/21 09:27:55;;;;;;;0.20;0.10;;;;;;;;;;4969099;28;20045;-84
2022/10/21 09:30:22;;;;;;;0.20;0.10;;;;;;;;;;4946384;28;20039;-87
2022/10/21 09:32:49;;;;;;;0.20;0.10;;;;;;;;;;4999789;28;20085;-84
2022/10/21 09:35:34;;;;;;;0.20;0.10;;;;;;;;;;5023735;28;20037;-84
2022/10/21 09:38:10;;;;;;;0.20;0.10;;;;;;;;;;5036959;28;20044;-84
2022/10/21 09:40:36;;;;;;;0.20;0.10;;;;;;;;;;5021573;28;20040;-85
2022/10/21 09:43:02;;;;;;;0.20;0.10;;;;;;;;;;5019846;28;20037;-86
2022/10/21 09:45:28;;;;;;;0.20;0.10;;;;;;;;;;5023670;28;20036;-86
2022/10/21 09:48:03;;;;;;;0.25;0.20;;;;;;;;;;5016731;28;20061;-85
2022/10/21 09:50:31;;;;;;;0.20;0.10;;;;;;;;;;5017884;28;20182;-88
2022/10/21 09:53:01;;;;;;;0.20;0.10;;;;;;;;;;5037432;28;20029;-87
2022/10/21 09:55:28;;;;;;;0.20;0.10;;;;;;;;;;5018911;28;20037;-85
2022/10/21 09:57:57;;;;;;;0.20;0.10;;;;;;;;;;5003090;28;20087;-85
2022/10/21 10:00:39;;;;;;;0.20;0.10;;;;;;;;;;5020706;28;20071;-85
2022/10/21 10:03:07;;;;;;;;;;;;;;;;;;5014361;28;20129;-86
2022/10/21 10:05:35;;;;;;;0.20;0.10;;;;;;;;;;5029603;28;19936;-87
2022/10/21 10:08:18;;;;;;;0.20;0.10;;;;;;;;;;5017628;28;20059;-89
2022/10/21 10:10:44;;;;;;;0.20;0.10;;;;;;;;;;5014566;28;20041;-89
2022/10/21 10:13:15;;;;;;;0.20;0.05;;;;;;;;;;5014943;28;20049;-90
2022/10/21 10:15:44;;;;;;;0.20;0.10;;;;;;;;;;5024182;28;20065;-86
2022/10/21 10:18:21;;;;;;;0.20;0.10;;;;;;;;;;5020332;28;20041;-88
2022/10/21 10:21:03;;;;;;;0.20;0.10;;;;;;;;;;5021208;28;20124;-87
2022/10/21 10:23:29;;;;;;;0.20;0.10;;;;;;;;;;5029357;28;20124;-88
2022/10/21 10:25:55;;;;;;;0.20;0.10;;;;;;;;;;5016939;28;20029;-88
2022/10/21 10:28:25;;;;;;;0.20;0.10;;;;;;;;;;5019733;28;20864;-87
2022/10/21 10:30:55;;;;;;;0.20;0.10;;;;;;;;;;5022242;28;22022;-88
2022/10/21 10:33:27;;;;;;;0.20;0.10;;;;;;;;;;5018152;28;20040;-88
2022/10/21 10:35:57;;;;;;;0.20;0.10;;;;;;;;;;5032130;28;20047;-86
2022/10/21 10:38:26;;;;;;;0.20;0.10;;;;;;;;;;5014674;28;20068;-89
2022/10/21 10:40:52;;;;;;;0.20;0.20;;;;;;;;;;5017717;28;21810;-87
2022/10/21 10:43:18;;;;;;;0.20;0.10;;;;;;;;;;5033375;28;20477;-86
2022/10/21 10:45:53;;;;;;;0.20;0.10;;;;;;;;;;5018557;28;20511;-85
2022/10/21 10:48:22;;;;;;;0.20;0.10;;;;;;;;;;5037124;28;20503;-88
2022/10/21 10:50:49;;;;;;;0.20;0.10;;;;;;;;;;5013261;28;20041;-85
2022/10/21 10:53:20;;;;;;;0.20;0.10;;;;;;;;;;5015372;28;20080;-87
2022/10/21 10:55:47;;;;;;;0.20;0.10;;;;;;;;;;5034246;28;20047;-89
2022/10/21 10:58:14;;;;;;;0.20;0.10;;;;;;;;;;5021990;28;20063;-88
2022/10/21 11:00:44;;;;;;;0.20;0.10;;;;;;;;;;5019017;28;20033;-88
2022/10/21 11:03:13;;;;;;;0.20;0.10;;;;;;;;;;5022339;28;20045;-88
2022/10/21 11:05:42;;;;;;;0.20;0.10;;;;;;;;;;5024079;28;20048;-88
2022/10/21 11:08:28;;;;;;;0.20;0.10;;;;;;;;;;5037263;28;20393;-87
2022/10/21 11:11:03;;;;;;;0.20;0.08;;;;;;;;;;5008708;28;20045;-88
2022/10/21 11:13:29;;;;;;;0.20;0.10;;;;;;;;;;5014988;28;20056;-88
2022/10/21 11:16:18;;;;;;;0.40;0.20;;;;;;;;;;5015710;28;20056;-85
2022/10/21 11:19:03;;;;;;;0.20;0.10;;;;;;;;;;5019313;28;20294;-88
2022/10/21 11:21:30;;;;;;;0.20;0.10;;;;;;;;;;5035741;28;22150;-88
2022/10/21 11:24:08;;;;;;;0.20;0.10;;;;;;;;;;5032412;28;20320;-88
2022/10/21 11:26:56;;;;;;;0.20;0.10;;;;;;;;;;5018983;28;20041;-87
2022/10/21 11:29:28;;;;;;;0.20;0.10;;;;;;;;;;5022277;28;20045;-88
2022/10/21 11:32:00;;;;;;;0.20;0.10;;;;;;;;;;5024489;28;20079;-87
2022/10/21 11:34:38;;;;;;;0.20;0.10;;;;;;;;;;5040063;28;20120;-85
2022/10/21 11:37:08;;;;;;;0.20;0.10;;;;;;;;;;5039186;28;20044;-89
2022/10/21 11:39:45;;;;;;;0.20;0.10;;;;;;;;;;5039196;28;20384;-90
2022/10/21 11:42:14;;;;;;;0.57;0.57;;;;;;;;;;5037502;28;20045;-90
2022/10/21 11:44:55;;;;;;;0.20;0.10;;;;;;;;;;5015779;28;20480;-86
2022/10/21 11:47:35;;;;;;;0.20;0.10;;;;;;;;;;5016333;28;20483;-88
2022/10/21 11:50:15;;;;;;;0.20;0.10;;;;;;;;;;5038880;28;20486;-90
2022/10/21 11:53:10;;;;;;;0.20;0.10;;;;;;;;;;5035535;28;20499;-90
2022/10/21 11:55:47;;;;;;;0.20;0.10;;;;;;;;;;5034743;28;20052;-92
2022/10/21 11:58:13;;;;;;;0.20;0.10;;;;;;;;;;5023071;28;20041;-88
2022/10/21 12:00:53;;;;;;;0.20;0.08;;;;;;;;;;5029096;28;20090;-90
2022/10/21 12:03:19;;;;;;;0.20;0.10;;;;;;;;;;5014073;28;20044;-89
2022/10/21 12:06:00;;;;;;;0.20;0.10;;;;;;;;;;5023505;28;20040;-89
2022/10/21 12:08:37;;;;;;;0.20;0.10;;;;;;;;;;5032658;28;20523;-88
2022/10/21 12:11:13;;;;;;;0.20;0.10;;;;;;;;;;5018285;28;20102;-90
2022/10/21 12:13:45;;;;;;;0.20;0.10;;;;;;;;;;5018381;28;20762;-92
2022/10/21 12:16:11;;;;;;;;;;;;;;;;;;5023342;28;20604;-86
2022/10/21 12:18:42;;;;;;;0.20;0.10;;;;;;;;;;5039932;28;19920;-88
2022/10/21 12:21:13;;;;;;;0.20;0.10;;;;;;;;;;5019753;28;20048;-90
2022/10/21 12:23:39;;;;;;;0.20;0.10;;;;;;;;;;5021364;28;20136;-86
2022/10/21 12:26:05;;;;;;;0.20;0.10;;;;;;;;;;5030813;28;20087;-87
2022/10/21 12:28:44;;;;;;;0.20;0.10;;;;;;;;;;5021953;28;20041;-86
2022/10/21 12:31:16;;;;;;;0.20;0.10;;;;;;;;;;5039724;28;20037;-87
2022/10/21 12:33:47;;;;;;;0.20;0.10;;;;;;;;;;5022387;28;20036;-85
2022/10/21 12:36:18;;;;;;;0.30;0.15;;;;;;;;;;5037086;28;20171;-87
2022/10/21 12:38:47;;;;;;;0.20;0.20;;;;;;;;;;5022450;28;20036;-91
2022/10/21 12:41:19;;;;;;;0.20;0.10;;;;;;;;;;5018721;28;20311;-86
2022/10/21 12:43:52;;;;;;;0.20;0.10;;;;;;;;;;5032556;28;20048;-89
2022/10/21 12:46:23;;;;;;;0.20;0.10;;;;;;;;;;5020343;28;20041;-89
2022/10/21 12:48:49;;;;;;;0.20;0.20;;;;;;;;;;5020519;28;20091;-88
2022/10/21 12:51:18;;;;;;;0.20;0.10;;;;;;;;;;5027140;28;20344;-89
2022/10/21 12:53:50;;;;;;;0.20;0.10;;;;;;;;;;5023327;28;20052;-88
2022/10/21 12:56:39;;;;;;;0.20;0.10;;;;;;;;;;5023813;28;20041;-90
2022/10/21 12:59:06;;;;;;;0.47;0.30;;;;;;;;;;5013281;28;20036;-88
2022/10/21 13:01:34;;;;;;;0.30;0.20;;;;;;;;;;5020767;28;20055;-87
2022/10/21 13:04:00;;;;;;;0.20;0.10;;;;;;;;;;5019768;28;20036;-87
2022/10/21 13:06:59;;;;;;;0.20;0.10;;;;;;;;;;5022245;28;20047;-87
2022/10/21 13:09:31;;;;;;;0.20;0.10;;;;;;;;;;4976850;28;20050;-87
2022/10/21 13:12:17;;;;;;;0.20;0.10;;;;;;;;;;5016958;28;20045;-88
2022/10/21 13:14:47;;;;;;;0.20;0.10;;;;;;;;;;5010286;28;20135;-89
2022/10/21 13:17:36;;;;;;;0.20;0.10;;;;;;;;;;5021598;28;20045;-88
2022/10/21 13:20:14;;;;;;;0.20;0.10;;;;;;;;;;5024196;28;20041;-89
2022/10/21 13:22:42;;;;;;;0.20;0.10;;;;;;;;;;5015296;28;20038;-89
2022/10/21 13:25:27;;;;;;;0.30;0.20;;;;;;;;;;5013900;28;20037;-89
2022/10/21 13:27:54;;;;;;;0.20;0.10;;;;;;;;;;5038724;28;20037;-86
2022/10/21 13:30:26;;;;;;;0.20;0.10;;;;;;;;;;5023443;28;21245;-89
2022/10/21 13:33:06;;;;;;;0.20;0.10;;;;;;;;;;5026318;28;20058;-88
2022/10/21 13:35:44;;;;;;;0.20;0.10;;;;;;;;;;5025467;28;20044;-88
2022/10/21 13:38:29;;;;;;;0.20;0.10;;;;;;;;;;5038220;28;20048;-89
2022/10/21 13:41:06;;;;;;;0.20;0.10;;;;;;;;;;5028795;28;20037;-88
2022/10/21 13:43:44;;;;;;;0.20;0.10;;;;;;;;;;5035815;28;20079;-88
2022/10/21 13:46:15;;;;;;;0.20;0.10;;;;;;;;;;5017560;28;20504;-87
2022/10/21 13:48:59;;;;;;;0.20;0.10;;;;;;;;;;5181539;22;20053;-87
2022/10/21 13:51:34;;;;;;;0.20;0.10;;;;;;;;;;5039706;28;20045;-87
2022/10/21 13:54:32;;;;;;;;;;;;;;;;;;;;;
2022/10/21 13:57:43;;;;;;;;;;;;;;;;;;;;;
2022/10/21 14:00:30;;;;;;;0.20;0.10;;;;;;;;;;5027630;28;20527;-88
2022/10/21 14:06:12;;;;;;;0.20;0.10;;;;;;;;;;5038121;28;20128;-90
2022/10/21 14:08:49;;;;;;;0.20;0.10;;;;;;;;;;5038416;28;20063;-88
2022/10/21 14:11:43;;;;;;;0.40;0.30;;;;;;;;;;5025932;28;20088;-89
2022/10/21 14:14:16;;;;;;;0.20;0.10;;;;;;;;;;5024196;28;20037;-92
2022/10/21 14:17:27;;;;;;;0.20;0.10;;;;;;;;;;5038062;28;20043;-90
2022/10/21 14:20:20;;;;;;;0.20;0.10;;;;;;;;;;5020295;28;20076;-88
2022/10/21 14:22:50;;;;;;;0.20;0.05;;;;;;;;;;5024760;28;20051;-86
2022/10/21 14:26:09;;;;;;;;;;;;;;;;;;;;;
2022/10/21 14:28:50;;;;;;;0.20;0.10;;;;;;;;;;5036360;28;20045;-86
2022/10/21 14:31:51;;;;;;;0.20;0.10;;;;;;;;;;5016364;28;20092;-89
2022/10/21 14:34:58;;;;;;;0.20;0.10;;;;;;;;;;5010757;28;20084;-89
2022/10/21 14:37:34;;;;;;;0.30;0.20;;;;;;;;;;4999390;28;20041;-88
2022/10/21 14:40:30;;;;;;;0.20;0.10;;;;;;;;;;4998091;28;20037;-86
2022/10/21 14:43:28;;;;;;;0.20;0.10;;;;;;;;;;5000544;28;20044;-90
2022/10/21 14:45:57;;;;;;;0.43;0.13;;;;;;;;;;5001370;28;20132;-88
2022/10/21 14:48:27;;;;;;;0.20;0.10;;;;;;;;;;4996075;28;20047;-87
2022/10/21 14:51:41;;;;;;;0.20;0.10;;;;;;;;;;5000685;28;20040;-88
2022/10/21 14:54:24;;;;;;;0.20;0.10;;;;;;;;;;5017520;28;20072;-88
2022/10/21 14:56:53;;;;;;;0.20;0.10;;;;;;;;;;5018360;28;20057;-88
2022/10/21 14:59:22;;;;;;;0.20;0.10;;;;;;;;;;5007195;28;20053;-86
2022/10/21 15:01:52;;;;;;;0.20;0.10;;;;;;;;;;5036225;28;20099;-88
2022/10/21 15:04:40;;;;;;;0.20;0.10;;;;;;;;;;5023725;28;20127;-90
2022/10/21 15:07:15;;;;;;;0.20;0.10;;;;;;;;;;5018283;28;20029;-87
2022/10/21 15:10:10;;;;;;;0.25;0.10;;;;;;;;;;5016453;28;20381;-90
2022/10/21 15:13:05;;;;;;;;;;;;;;;;;;;;;
2022/10/21 15:15:59;;;;;;;0.20;0.10;;;;;;;;;;5039673;28;20064;-87
2022/10/21 15:18:46;;;;;;;0.20;0.10;;;;;;;;;;5036996;28;20045;-89
2022/10/21 15:21:40;;;;;;;0.20;0.10;;;;;;;;;;5024009;28;20660;-87
2022/10/21 15:24:21;;;;;;;0.20;0.10;;;;;;;;;;5022100;28;20064;-89
2022/10/21 15:27:16;;;;;;;0.20;0.10;;;;;;;;;;5016845;28;20045;-88
2022/10/21 15:33:08;;;;;;;0.20;0.10;;;;;;;;;;4977932;28;20713;-90
2022/10/21 15:35:43;;;;;;;0.20;0.10;;;;;;;;;;4955582;28;20149;-89
2022/10/21 15:38:34;;;;;;;0.20;0.10;;;;;;;;;;4965450;28;20043;-89
2022/10/21 15:41:33;;;;;;;0.20;0.10;;;;;;;;;;4994036;28;20053;-86
2022/10/21 15:44:01;;;;;;;0.20;0.10;;;;;;;;;;5020987;28;20034;-89
2022/10/21 15:46:56;;;;;;;0.20;0.10;;;;;;;;;;5039636;28;20033;-89